Time;durP1;ratioP1;P1;durP2;ratioP2;P2;SDS_P1;SDS_P2;PMS_P1;PMS_P2;Temp;Humidity;BMP_temperature;BMP_pressure;BME280_temperature;BME280_humidity;BME280_pressure;Samples;Min_cycle;Max_cycle;Signal;HPM_P1;HPM_P2
2022/12/06 00:01:09;;;;;;;6.07;4.43;;;6.40;99.90;;;;;;5061950;28;20203;-57
2022/12/06 00:03:37;;;;;;;6.83;4.30;;;6.40;99.90;;;;;;5063391;28;20626;-57
2022/12/06 00:06:07;;;;;;;4.30;3.77;;;6.40;99.90;;;;;;5075979;28;20302;-56
2022/12/06 00:08:36;;;;;;;4.17;3.60;;;6.50;99.90;;;;;;5061956;28;20667;-56
2022/12/06 00:11:08;;;;;;;5.03;3.60;;;6.40;99.90;;;;;;5062511;28;20654;-57
2022/12/06 00:13:36;;;;;;;5.80;3.80;;;6.50;99.90;;;;;;5063535;28;20205;-57
2022/12/06 00:16:06;;;;;;;5.30;3.50;;;6.50;99.90;;;;;;5061450;28;20196;-57
2022/12/06 00:18:34;;;;;;;7.87;3.57;;;6.50;99.90;;;;;;5060792;28;20215;-56
2022/12/06 00:21:16;;;;;;;5.20;3.23;;;6.50;99.90;;;;;;5058810;28;20211;-57
2022/12/06 00:23:49;;;;;;;5.13;3.37;;;6.50;99.90;;;;;;5059639;28;20241;-57
2022/12/06 00:26:17;;;;;;;5.23;3.43;;;6.40;99.90;;;;;;5058897;28;20634;-58
2022/12/06 00:28:44;;;;;;;5.40;3.20;;;6.40;99.90;;;;;;5058772;28;20238;-57
2022/12/06 00:31:16;;;;;;;6.40;3.90;;;6.40;99.90;;;;;;5059966;28;20228;-56
2022/12/06 00:33:44;;;;;;;5.23;4.00;;;6.40;99.90;;;;;;5060717;28;20207;-57
2022/12/06 00:36:21;;;;;;;4.87;3.70;;;6.50;99.90;;;;;;5057949;28;20336;-56
2022/12/06 00:38:48;;;;;;;6.27;5.00;;;6.50;99.90;;;;;;5060562;28;20212;-56
2022/12/06 00:41:21;;;;;;;3.77;2.60;;;6.50;99.90;;;;;;5059265;28;20280;-56
2022/12/06 00:43:49;;;;;;;3.70;2.80;;;6.40;99.90;;;;;;5059341;28;20208;-56
2022/12/06 00:46:26;;;;;;;5.30;3.40;;;6.50;99.90;;;;;;5059943;28;20247;-56
2022/12/06 00:48:54;;;;;;;4.87;3.13;;;6.40;99.90;;;;;;5057403;28;20249;-56
2022/12/06 00:51:22;;;;;;;4.80;3.60;;;6.60;99.90;;;;;;5057453;28;20395;-56
2022/12/06 00:53:50;;;;;;;6.73;3.40;;;6.50;99.90;;;;;;5060149;28;20254;-56
2022/12/06 00:56:17;;;;;;;5.73;3.17;;;6.60;99.90;;;;;;5042427;28;20618;-56
2022/12/06 00:58:45;;;;;;;7.17;3.50;;;6.60;99.90;;;;;;5057533;28;20536;-56
2022/12/06 01:01:15;;;;;;;4.17;3.00;;;6.60;99.90;;;;;;5054730;28;20216;-57
2022/12/06 01:03:43;;;;;;;5.40;3.10;;;6.50;99.90;;;;;;5059260;28;20204;-56
2022/12/06 01:06:13;;;;;;;4.67;2.97;;;6.40;99.90;;;;;;5057869;28;20786;-56
2022/12/06 01:08:41;;;;;;;4.50;3.10;;;6.40;99.90;;;;;;5059213;28;20665;-56
2022/12/06 01:11:09;;;;;;;4.57;3.00;;;6.40;99.90;;;;;;5060314;28;20230;-56
2022/12/06 01:13:36;;;;;;;3.70;2.80;;;6.30;99.90;;;;;;5056120;28;20288;-57
2022/12/06 01:16:07;;;;;;;4.67;2.90;;;6.30;99.90;;;;;;5058214;28;20599;-56
2022/12/06 01:18:34;;;;;;;3.80;3.20;;;6.40;99.90;;;;;;5056069;28;20197;-57
2022/12/06 01:21:11;;;;;;;4.27;3.47;;;6.40;99.90;;;;;;5058262;28;20333;-56
2022/12/06 01:23:38;;;;;;;4.90;2.93;;;6.40;99.90;;;;;;5059251;28;20265;-53
2022/12/06 01:26:06;;;;;;;5.67;3.47;;;6.50;99.90;;;;;;5057751;28;20197;-53
2022/12/06 01:28:33;;;;;;;4.90;3.60;;;6.40;99.90;;;;;;5056760;28;20232;-56
2022/12/06 01:31:06;;;;;;;4.70;3.40;;;6.40;99.90;;;;;;5058761;28;20237;-56
2022/12/06 01:33:33;;;;;;;5.40;2.83;;;6.40;99.90;;;;;;5058497;28;20600;-56
2022/12/06 01:36:00;;;;;;;4.47;3.17;;;6.30;99.90;;;;;;5056793;28;20193;-56
2022/12/06 01:38:26;;;;;;;5.43;3.27;;;6.40;99.90;;;;;;5058440;28;20561;-56
2022/12/06 01:40:53;;;;;;;5.80;3.17;;;6.40;99.90;;;;;;5057950;28;20208;-56
2022/12/06 01:43:41;;;;;;;6.30;3.33;;;6.30;99.90;;;;;;5056381;28;20710;-56
2022/12/06 01:46:31;;;;;;;5.27;3.37;;;6.30;99.90;;;;;;5052245;28;20201;-56
2022/12/06 01:49:11;;;;;;;8.53;3.77;;;6.40;99.90;;;;;;5052026;28;20207;-56
2022/12/06 01:51:58;;;;;;;6.27;3.80;;;6.40;99.90;;;;;;5052582;28;20296;-56
2022/12/06 01:54:26;;;;;;;5.70;3.93;;;6.40;99.90;;;;;;5050266;28;20266;-56
2022/12/06 01:56:54;;;;;;;6.37;4.07;;;6.40;99.90;;;;;;5052044;28;20567;-57
2022/12/06 01:59:23;;;;;;;5.57;3.37;;;6.40;99.90;;;;;;5045904;28;22262;-56
2022/12/06 02:01:50;;;;;;;9.33;4.07;;;6.30;99.90;;;;;;5050916;28;20580;-56
2022/12/06 02:04:18;;;;;;;6.37;3.70;;;6.30;99.90;;;;;;5052510;28;20290;-56
2022/12/06 02:06:45;;;;;;;7.87;4.10;;;6.20;99.90;;;;;;5052059;28;20211;-56
2022/12/06 02:09:14;;;;;;;6.27;3.73;;;6.30;99.90;;;;;;5050771;28;20206;-57
2022/12/06 02:11:42;;;;;;;5.67;4.23;;;6.30;99.90;;;;;;5049909;28;20223;-57
2022/12/06 02:14:15;;;;;;;6.40;3.83;;;6.40;99.90;;;;;;5052884;28;20267;-56
2022/12/06 02:17:08;;;;;;;6.33;3.50;;;6.30;99.90;;;;;;5052532;28;20240;-56
2022/12/06 02:19:50;;;;;;;8.23;4.17;;;6.40;99.90;;;;;;5051809;28;20248;-57
2022/12/06 02:22:36;;;;;;;6.30;3.87;;;6.50;99.90;;;;;;5053172;28;20201;-56
2022/12/06 02:25:10;;;;;;;6.03;4.70;;;6.40;99.90;;;;;;5053167;28;20251;-57
2022/12/06 02:28:03;;;;;;;6.53;3.90;;;6.40;99.90;;;;;;5052531;28;20226;-57
2022/12/06 02:30:35;;;;;;;7.93;3.67;;;6.50;99.90;;;;;;5053318;28;20288;-57
2022/12/06 02:33:07;;;;;;;11.17;4.30;;;6.50;99.90;;;;;;5051919;28;20194;-57
2022/12/06 02:35:51;;;;;;;6.73;3.80;;;6.50;99.90;;;;;;5050540;28;22312;-58
2022/12/06 02:38:47;;;;;;;5.90;3.80;;;6.40;99.90;;;;;;5051653;28;20654;-57
2022/12/06 02:41:21;;;;;;;6.47;4.00;;;6.40;99.90;;;;;;5054422;28;20543;-56
2022/12/06 02:43:56;;;;;;;5.40;3.70;;;6.50;99.90;;;;;;5052458;28;20732;-57
2022/12/06 02:46:28;;;;;;;7.30;3.83;;;6.50;99.90;;;;;;5053681;28;20663;-57
2022/12/06 02:48:58;;;;;;;10.40;3.87;;;6.50;99.90;;;;;;5050717;28;20217;-57
2022/12/06 02:51:27;;;;;;;5.90;3.80;;;6.40;99.90;;;;;;5050192;28;20604;-56
2022/12/06 02:53:56;;;;;;;7.47;4.00;;;6.50;99.90;;;;;;5053327;28;20325;-56
2022/12/06 02:56:24;;;;;;;7.77;4.20;;;6.40;99.90;;;;;;5052458;28;20283;-58
2022/12/06 02:58:51;;;;;;;9.63;3.97;;;6.50;99.90;;;;;;5051922;28;20292;-59
2022/12/06 03:01:26;;;;;;;6.87;4.60;;;6.50;99.90;;;;;;5049966;28;20212;-57
2022/12/06 03:03:58;;;;;;;7.40;4.07;;;6.50;99.90;;;;;;5053892;28;20231;-57
2022/12/06 03:06:53;;;;;;;7.50;4.10;;;6.50;99.90;;;;;;5047453;28;20265;-57
2022/12/06 03:09:35;;;;;;;8.50;3.93;;;6.40;99.90;;;;;;5049954;28;20288;-57
2022/12/06 03:12:05;;;;;;;7.37;3.80;;;6.40;99.90;;;;;;5050477;28;20237;-56
2022/12/06 03:15:04;;;;;;;7.40;3.77;;;6.50;99.90;;;;;;5051119;28;20299;-57
2022/12/06 03:17:55;;;;;;;6.93;3.97;;;6.50;99.90;;;;;;5051103;28;20887;-57
2022/12/06 03:20:41;;;;;;;9.63;4.23;;;6.60;99.90;;;;;;5050611;28;20203;-57
2022/12/06 03:23:13;;;;;;;6.00;3.50;;;6.50;99.90;;;;;;5036167;28;20675;-58
2022/12/06 03:25:43;;;;;;;11.43;3.87;;;6.50;99.90;;;;;;5049118;28;20203;-61
2022/12/06 03:28:14;;;;;;;5.50;3.40;;;6.60;99.90;;;;;;5046404;28;20267;-57
2022/12/06 03:30:46;;;;;;;7.20;3.73;;;6.60;99.90;;;;;;5052110;28;20272;-57
2022/12/06 03:33:15;;;;;;;6.87;3.80;;;6.60;99.90;;;;;;5050505;28;20661;-57
2022/12/06 03:35:44;;;;;;;10.80;3.70;;;6.70;99.90;;;;;;5050640;28;20204;-56
2022/12/06 03:38:20;;;;;;;8.33;4.07;;;6.60;99.90;;;;;;5049939;28;20693;-56
2022/12/06 03:40:50;;;;;;;5.93;3.67;;;6.70;99.90;;;;;;5049098;28;20199;-57
2022/12/06 03:43:17;;;;;;;6.93;4.10;;;6.60;99.90;;;;;;5065687;28;20209;-56
2022/12/06 03:46:07;;;;;;;8.63;4.40;;;6.70;99.90;;;;;;5056244;28;20618;-56
2022/12/06 03:48:43;;;;;;;6.80;3.73;;;6.70;99.90;;;;;;5054016;28;20708;-56
2022/12/06 03:51:16;;;;;;;7.27;3.40;;;6.70;99.90;;;;;;5056388;28;21141;-56
2022/12/06 03:53:47;;;;;;;10.23;3.40;;;6.70;99.90;;;;;;5056352;28;20193;-56
2022/12/06 03:56:14;;;;;;;6.27;3.40;;;6.60;99.90;;;;;;5053062;28;20299;-56
2022/12/06 03:58:41;;;;;;;6.90;3.30;;;6.60;99.90;;;;;;5057750;28;20195;-56
2022/12/06 04:01:08;;;;;;;7.07;3.47;;;6.60;99.90;;;;;;5059024;28;20207;-59
2022/12/06 04:03:35;;;;;;;8.83;3.70;;;6.60;99.90;;;;;;5053952;28;20219;-57
2022/12/06 04:06:04;;;;;;;8.53;3.23;;;6.60;99.90;;;;;;5059097;28;20233;-56
2022/12/06 04:08:31;;;;;;;7.23;3.97;;;6.40;99.90;;;;;;5059721;28;20295;-56
2022/12/06 04:10:58;;;;;;;6.40;3.77;;;6.60;99.90;;;;;;5059188;28;20228;-56
2022/12/06 04:13:26;;;;;;;5.30;3.10;;;6.50;99.90;;;;;;5059874;28;20267;-56
2022/12/06 04:16:00;;;;;;;6.77;3.20;;;6.60;99.90;;;;;;5059459;28;20201;-57
2022/12/06 04:18:27;;;;;;;11.57;3.77;;;6.60;99.90;;;;;;5059378;28;20231;-56
2022/12/06 04:23:47;;;;;;;7.70;3.50;;;6.50;99.90;;;;;;5059435;28;20666;-56
2022/12/06 04:26:19;;;;;;;5.80;3.17;;;6.50;99.90;;;;;;5058480;28;21194;-56
2022/12/06 04:39:49;;;;;;;6.00;2.90;;;6.60;99.90;;;;;;5059775;28;20548;-57
2022/12/06 04:45:03;;;;;;;5.73;3.17;;;6.60;99.90;;;;;;5058718;28;20203;-57
2022/12/06 04:47:30;;;;;;;4.83;2.80;;;6.50;99.90;;;;;;5059512;28;20224;-56
2022/12/06 04:49:57;;;;;;;7.27;3.23;;;6.60;99.90;;;;;;5073603;28;20677;-61
2022/12/06 04:52:24;;;;;;;4.73;3.07;;;6.50;99.90;;;;;;5059424;28;20276;-56
2022/12/06 04:54:51;;;;;;;6.07;3.13;;;6.50;99.90;;;;;;5058304;28;20209;-57
2022/12/06 04:57:18;;;;;;;6.33;2.87;;;6.40;99.90;;;;;;5059190;28;20217;-57
2022/12/06 04:59:49;;;;;;;4.67;2.47;;;6.30;99.90;;;;;;5055151;28;20316;-57
2022/12/06 05:02:15;;;;;;;5.73;2.77;;;6.40;99.90;;;;;;5059201;28;20292;-56
2022/12/06 05:04:42;;;;;;;6.50;3.53;;;6.40;99.90;;;;;;5058398;28;20594;-57
2022/12/06 05:07:10;;;;;;;5.23;2.37;;;6.50;99.90;;;;;;5058998;28;21162;-60
2022/12/06 05:09:37;;;;;;;3.40;2.23;;;6.50;99.90;;;;;;5059117;28;20227;-56
2022/12/06 05:12:04;;;;;;;6.13;2.70;;;6.30;99.90;;;;;;5059742;28;20239;-57
2022/12/06 05:14:31;;;;;;;4.70;2.60;;;6.40;99.90;;;;;;5059510;28;20651;-59
2022/12/06 05:16:58;;;;;;;4.97;2.47;;;6.50;99.90;;;;;;5059911;28;20277;-57
2022/12/06 05:19:26;;;;;;;8.63;2.40;;;6.40;99.90;;;;;;5057481;28;20208;-56
2022/12/06 05:21:52;;;;;;;3.97;2.43;;;6.40;99.90;;;;;;5059259;28;20203;-56
2022/12/06 05:24:19;;;;;;;7.80;2.20;;;6.30;99.90;;;;;;5058450;28;20208;-56
2022/12/06 05:26:46;;;;;;;4.97;2.47;;;6.30;99.90;;;;;;5041976;28;20294;-56
2022/12/06 05:29:13;;;;;;;3.63;2.20;;;6.40;99.90;;;;;;5055169;28;20233;-56
2022/12/06 05:31:40;;;;;;;3.90;2.40;;;6.40;99.90;;;;;;5057771;28;20299;-56
2022/12/06 05:34:08;;;;;;;5.37;2.77;;;6.50;99.90;;;;;;5054668;28;20229;-56
2022/12/06 05:36:34;;;;;;;9.90;2.83;;;6.50;99.90;;;;;;5053382;28;21212;-56
2022/12/06 05:39:02;;;;;;;4.57;2.80;;;6.50;99.90;;;;;;5053389;28;20264;-56
2022/12/06 05:41:28;;;;;;;6.40;3.00;;;6.50;99.90;;;;;;5054766;28;20733;-56
2022/12/06 05:43:55;;;;;;;4.07;2.57;;;6.60;99.90;;;;;;5058821;28;20237;-56
2022/12/06 05:46:22;;;;;;;6.53;2.37;;;6.50;99.90;;;;;;5059335;28;20240;-56
2022/12/06 05:48:49;;;;;;;7.33;2.53;;;6.50;99.90;;;;;;5057481;28;20251;-56
2022/12/06 05:51:16;;;;;;;3.93;2.67;;;6.50;99.90;;;;;;5055296;28;20568;-56
2022/12/06 05:53:42;;;;;;;4.40;2.00;;;6.50;99.90;;;;;;5057650;28;20202;-56
2022/12/06 05:56:11;;;;;;;6.40;2.80;;;6.50;99.90;;;;;;5058407;28;20291;-56
2022/12/06 05:58:39;;;;;;;5.00;3.07;;;6.50;99.90;;;;;;5058064;28;20247;-56
2022/12/06 06:01:07;;;;;;;4.87;2.53;;;6.50;99.90;;;;;;5058531;28;20205;-57
2022/12/06 06:03:34;;;;;;;3.77;2.40;;;6.50;99.90;;;;;;5058176;28;20204;-57
2022/12/06 06:06:02;;;;;;;3.73;2.67;;;6.50;99.90;;;;;;5052939;28;20614;-56
2022/12/06 06:08:29;;;;;;;4.87;2.97;;;6.30;99.90;;;;;;5056077;28;20252;-57
2022/12/06 06:10:57;;;;;;;6.07;2.70;;;6.40;99.90;;;;;;5054585;28;20270;-57
2022/12/06 06:13:24;;;;;;;4.67;3.07;;;6.50;99.90;;;;;;5054036;28;20818;-57
2022/12/06 06:15:51;;;;;;;6.23;2.70;;;6.40;99.90;;;;;;5058882;28;20196;-59
2022/12/06 06:18:18;;;;;;;4.27;2.30;;;6.40;99.90;;;;;;5058665;28;20204;-58
2022/12/06 06:20:54;;;;;;;4.10;2.67;;;6.40;99.90;;;;;;5057109;28;20690;-57
2022/12/06 06:23:21;;;;;;;7.27;2.70;;;6.30;99.90;;;;;;5057196;28;20211;-56
2022/12/06 06:25:47;;;;;;;4.27;2.77;;;6.40;99.90;;;;;;5057814;28;20210;-56
2022/12/06 06:28:15;;;;;;;4.13;2.27;;;6.40;99.90;;;;;;5055499;28;20219;-56
2022/12/06 06:30:42;;;;;;;4.20;2.63;;;6.40;99.90;;;;;;5050730;28;20251;-56
2022/12/06 06:33:10;;;;;;;4.40;2.80;;;6.40;99.90;;;;;;5054273;28;20203;-59
2022/12/06 06:35:38;;;;;;;7.10;2.67;;;6.50;99.90;;;;;;5058810;28;20282;-56
2022/12/06 06:38:05;;;;;;;3.73;2.37;;;6.50;99.90;;;;;;5058065;28;20225;-61
2022/12/06 06:40:32;;;;;;;5.20;2.43;;;6.40;99.90;;;;;;5057959;28;20207;-58
2022/12/06 06:43:16;;;;;;;5.23;2.43;;;6.40;99.90;;;;;;5053150;28;20203;-56
2022/12/06 06:45:52;;;;;;;7.87;2.73;;;6.40;99.90;;;;;;5054724;28;20210;-57
2022/12/06 06:48:20;;;;;;;4.53;2.27;;;6.30;99.90;;;;;;5058739;28;20220;-56
2022/12/06 06:50:47;;;;;;;3.97;2.23;;;6.30;99.90;;;;;;5057893;28;20303;-56
2022/12/06 06:53:21;;;;;;;3.33;2.20;;;6.40;99.90;;;;;;5058775;28;20202;-57
2022/12/06 06:55:48;;;;;;;4.97;1.80;;;6.30;99.90;;;;;;5057113;28;20230;-57
2022/12/06 06:58:15;;;;;;;8.07;2.23;;;6.30;99.90;;;;;;5056919;28;20674;-56
2022/12/06 07:00:42;;;;;;;3.27;2.00;;;6.30;99.90;;;;;;5043083;28;20217;-56
2022/12/06 07:03:19;;;;;;;5.80;2.07;;;6.20;99.90;;;;;;5050034;28;20647;-56
2022/12/06 07:05:54;;;;;;;4.90;2.10;;;6.00;99.90;;;;;;5049379;28;20558;-56
2022/12/06 07:08:21;;;;;;;3.50;1.70;;;6.10;99.90;;;;;;5049154;28;20221;-56
2022/12/06 07:10:48;;;;;;;3.80;1.90;;;6.10;99.90;;;;;;5054354;28;20736;-56
2022/12/06 07:13:20;;;;;;;2.80;1.70;;;6.00;99.90;;;;;;5051238;28;20200;-56
2022/12/06 07:15:48;;;;;;;2.40;2.00;;;6.10;99.90;;;;;;4690406;28;10000313;-56
2022/12/06 07:18:16;;;;;;;2.80;1.70;;;6.10;99.90;;;;;;5045612;28;20295;-56
2022/12/06 07:20:44;;;;;;;4.77;1.87;;;6.10;99.90;;;;;;5048056;28;20250;-56
2022/12/06 07:23:11;;;;;;;3.47;2.27;;;6.10;99.90;;;;;;5052073;28;20199;-56
2022/12/06 07:25:38;;;;;;;3.87;1.77;;;6.10;99.90;;;;;;5059819;28;20216;-56
2022/12/06 07:28:05;;;;;;;3.43;1.67;;;6.20;99.90;;;;;;5057055;28;20265;-56
2022/12/06 07:30:32;;;;;;;3.70;2.00;;;6.20;99.90;;;;;;5055377;28;20274;-57
2022/12/06 07:32:59;;;;;;;7.33;2.47;;;6.10;99.90;;;;;;5056386;28;20302;-57
2022/12/06 07:35:26;;;;;;;5.50;2.17;;;6.20;99.90;;;;;;5055549;28;20231;-55
2022/12/06 07:38:13;;;;;;;5.37;2.63;;;6.20;99.90;;;;;;5054353;28;20691;-61
2022/12/06 07:40:39;;;;;;;3.67;2.20;;;6.20;99.90;;;;;;5048539;28;20553;-57
2022/12/06 07:46:12;;;;;;;3.80;2.00;;;6.20;99.90;;;;;;5051197;28;20669;-56
2022/12/06 07:48:39;;;;;;;3.70;2.30;;;6.10;99.90;;;;;;5042200;28;20208;-56
2022/12/06 07:51:06;;;;;;;5.33;1.83;;;6.10;99.90;;;;;;5043553;28;20208;-57
2022/12/06 07:53:33;;;;;;;10.83;4.77;;;6.20;99.90;;;;;;5046331;28;20220;-57
2022/12/06 07:56:05;;;;;;;4.70;2.40;;;6.20;99.90;;;;;;5050181;28;20263;-58
2022/12/06 07:58:32;;;;;;;3.00;2.00;;;6.30;99.90;;;;;;5053090;28;20999;-56
2022/12/06 08:01:00;;;;;;;3.47;2.37;;;6.30;99.90;;;;;;5049803;28;20199;-57
2022/12/06 08:03:28;;;;;;;3.57;2.00;;;6.30;99.90;;;;;;5046139;28;20723;-57
2022/12/06 08:05:54;;;;;;;2.43;1.97;;;6.30;99.90;;;;;;5058134;28;20202;-61
2022/12/06 08:08:21;;;;;;;4.27;2.20;;;6.40;99.90;;;;;;5057332;28;20217;-57
2022/12/06 08:10:57;;;;;;;5.17;2.10;;;6.40;99.90;;;;;;5042296;28;20226;-57
2022/12/06 08:13:24;;;;;;;3.10;2.07;;;6.50;99.90;;;;;;5056951;28;20201;-57
2022/12/06 08:15:51;;;;;;;4.07;1.93;;;6.50;99.90;;;;;;5036286;28;20298;-57
2022/12/06 08:18:18;;;;;;;6.50;2.17;;;6.50;99.90;;;;;;5053135;28;20221;-56
2022/12/06 08:20:44;;;;;;;3.53;2.10;;;6.40;99.90;;;;;;5052503;28;20245;-56
2022/12/06 08:23:11;;;;;;;3.27;2.30;;;6.40;99.90;;;;;;5055811;28;20257;-57
2022/12/06 08:25:38;;;;;;;3.77;2.17;;;6.40;99.90;;;;;;5074316;28;20212;-57
2022/12/06 08:28:05;;;;;;;4.30;2.30;;;6.40;99.90;;;;;;5051783;28;20222;-57
2022/12/06 08:30:32;;;;;;;3.63;1.80;;;6.40;99.90;;;;;;5055298;28;20739;-57
2022/12/06 08:32:59;;;;;;;2.93;2.27;;;6.40;99.90;;;;;;5054960;28;20202;-57
2022/12/06 08:35:25;;;;;;;5.77;2.57;;;6.50;99.90;;;;;;5056168;28;20203;-57
2022/12/06 08:37:52;;;;;;;5.23;2.33;;;6.50;99.90;;;;;;5056650;28;20789;-57
2022/12/06 08:40:19;;;;;;;5.63;2.00;;;6.50;99.90;;;;;;5055871;28;20820;-57
2022/12/06 08:42:46;;;;;;;4.07;2.40;;;6.70;99.90;;;;;;5058228;28;20279;-56
2022/12/06 08:45:12;;;;;;;2.97;2.63;;;6.90;99.90;;;;;;5054849;28;20662;-57
2022/12/06 08:47:39;;;;;;;6.77;2.97;;;7.00;99.90;;;;;;5056945;28;20217;-57
2022/12/06 08:50:06;;;;;;;4.70;2.20;;;7.10;99.90;;;;;;5058493;28;20238;-57
2022/12/06 08:52:33;;;;;;;6.27;2.67;;;7.20;99.90;;;;;;5054326;28;20701;-57
2022/12/06 08:55:00;;;;;;;4.47;2.53;;;7.10;99.90;;;;;;5053232;28;20659;-57
2022/12/06 08:57:27;;;;;;;4.27;2.63;;;7.20;99.90;;;;;;5054640;28;20235;-56
2022/12/06 08:59:54;;;;;;;5.23;2.40;;;7.10;99.90;;;;;;5054232;28;20216;-57
2022/12/06 09:02:21;;;;;;;5.70;2.20;;;7.10;99.90;;;;;;5054194;28;20195;-57
2022/12/06 09:04:50;;;;;;;2.33;1.83;;;7.40;99.90;;;;;;5054107;28;20232;-57
2022/12/06 09:07:18;;;;;;;3.87;2.50;;;7.30;99.90;;;;;;5051392;28;20198;-57
2022/12/06 09:09:45;;;;;;;5.00;2.33;;;7.50;99.90;;;;;;5052156;28;20219;-56
2022/12/06 09:12:12;;;;;;;5.73;2.80;;;7.60;99.90;;;;;;5054253;28;20205;-57
2022/12/06 09:14:39;;;;;;;4.97;2.13;;;7.50;99.90;;;;;;5056026;28;20212;-56
2022/12/06 09:17:06;;;;;;;7.27;2.30;;;7.30;99.90;;;;;;5057256;28;20230;-57
2022/12/06 09:19:33;;;;;;;5.60;2.67;;;7.60;99.90;;;;;;5058713;28;20202;-56
2022/12/06 09:22:00;;;;;;;6.00;2.13;;;7.80;99.90;;;;;;5055499;28;20224;-57
2022/12/06 09:24:27;;;;;;;4.97;2.40;;;8.10;99.90;;;;;;5057884;28;20257;-57
2022/12/06 09:26:54;;;;;;;3.53;2.27;;;8.00;99.90;;;;;;5056244;28;20206;-56
2022/12/06 09:29:22;;;;;;;5.43;2.20;;;7.80;99.90;;;;;;5049770;28;20331;-57
2022/12/06 09:31:48;;;;;;;3.57;2.33;;;8.20;99.90;;;;;;5054696;28;20206;-60
2022/12/06 09:34:16;;;;;;;3.10;1.93;;;8.20;99.90;;;;;;5057332;28;20228;-57
2022/12/06 09:36:48;;;;;;;4.13;2.30;;;8.10;99.90;;;;;;5057385;28;20209;-57
2022/12/06 09:39:21;;;;;;;3.90;2.23;;;8.00;99.90;;;;;;5058353;28;20214;-56
2022/12/06 09:42:07;;;;;;;3.00;2.00;;;8.20;99.90;;;;;;5055584;28;20235;-56
2022/12/06 09:44:43;;;;;;;5.23;2.50;;;8.30;99.90;;;;;;5048720;28;20302;-57
2022/12/06 09:47:18;;;;;;;10.03;2.23;;;8.30;99.90;;;;;;5054365;28;20202;-57
2022/12/06 09:50:09;;;;;;;4.63;2.40;;;8.30;99.90;;;;;;5057370;28;20313;-57
2022/12/06 09:52:39;;;;;;;3.23;1.90;;;8.40;99.90;;;;;;5053002;28;20668;-57
2022/12/06 09:55:42;;;;;;;4.17;2.07;;;8.60;99.90;;;;;;5054644;28;20201;-57
2022/12/06 09:58:21;;;;;;;3.40;2.00;;;8.80;99.90;;;;;;5055635;28;20531;-56
2022/12/06 10:01:05;;;;;;;2.50;2.30;;;8.30;99.90;;;;;;5035782;28;20236;-57
2022/12/06 10:03:43;;;;;;;3.60;2.30;;;8.50;99.90;;;;;;5052901;28;20675;-56
2022/12/06 10:06:13;;;;;;;5.47;1.70;;;9.10;99.90;;;;;;5057471;28;20198;-57
2022/12/06 10:08:48;;;;;;;4.10;2.20;;;9.00;99.90;;;;;;5055282;28;20752;-57
2022/12/06 10:11:34;;;;;;;3.17;2.10;;;9.10;99.90;;;;;;5056754;28;20275;-57
2022/12/06 10:14:38;;;;;;;2.90;2.00;;;9.00;99.90;;;;;;5073051;28;20301;-57
2022/12/06 10:17:27;;;;;;;7.10;2.20;;;9.20;99.90;;;;;;5054335;28;20231;-57
2022/12/06 10:20:08;;;;;;;5.63;2.67;;;9.20;99.90;;;;;;5055852;28;20198;-55
2022/12/06 10:22:44;;;;;;;4.07;2.10;;;9.20;99.90;;;;;;5055363;28;20653;-56
2022/12/06 10:25:25;;;;;;;3.53;2.50;;;9.10;99.90;;;;;;5054898;28;20658;-55
2022/12/06 10:28:10;;;;;;;4.70;2.20;;;9.30;99.90;;;;;;5052492;28;20242;-56
2022/12/06 10:30:47;;;;;;;3.50;2.17;;;9.10;99.90;;;;;;5051190;28;20980;-55
2022/12/06 10:33:20;;;;;;;4.10;2.70;;;9.20;99.90;;;;;;5056881;28;20215;-55
2022/12/06 10:35:59;;;;;;;3.67;2.03;;;9.00;99.90;;;;;;5054532;28;20288;-56
2022/12/06 10:38:26;;;;;;;2.30;1.77;;;9.10;99.90;;;;;;5053402;28;20198;-56
2022/12/06 10:41:11;;;;;;;4.50;2.60;;;8.80;99.90;;;;;;5052067;28;20202;-56
2022/12/06 10:44:00;;;;;;;4.03;2.20;;;8.80;99.90;;;;;;5056578;28;20757;-56
2022/12/06 10:49:51;;;;;;;4.20;2.40;;;8.80;99.90;;;;;;5053061;28;20264;-56
2022/12/06 10:52:20;;;;;;;4.87;2.40;;;8.80;99.90;;;;;;5053729;28;20227;-58
2022/12/06 10:55:09;;;;;;;3.87;2.17;;;8.90;99.90;;;;;;5053682;28;20727;-60
2022/12/06 10:57:53;;;;;;;4.40;1.87;;;8.70;99.90;;;;;;5058672;28;20591;-58
2022/12/06 11:00:29;;;;;;;3.53;2.40;;;8.80;99.90;;;;;;5057170;28;20211;-58
2022/12/06 11:03:05;;;;;;;4.90;2.10;;;8.70;99.90;;;;;;5058720;28;20205;-59
2022/12/06 11:05:42;;;;;;;3.63;1.97;;;8.80;99.90;;;;;;5057390;28;20210;-56
2022/12/06 11:08:38;;;;;;;3.00;2.00;;;8.90;99.90;;;;;;5059383;28;20656;-57
2022/12/06 11:11:12;;;;;;;4.10;2.17;;;8.60;99.90;;;;;;5059627;28;20256;-57
2022/12/06 11:13:41;;;;;;;5.07;2.00;;;8.70;99.90;;;;;;5064138;28;20616;-58
2022/12/06 11:16:22;;;;;;;6.60;2.63;;;8.80;99.90;;;;;;5061210;28;20622;-57
2022/12/06 11:18:49;;;;;;;2.77;1.70;;;8.90;99.90;;;;;;5064669;28;20205;-57
2022/12/06 11:21:35;;;;;;;3.00;1.90;;;8.90;99.90;;;;;;5060350;28;20265;-57
2022/12/06 11:24:27;;;;;;;2.63;1.90;;;8.90;99.90;;;;;;5059854;28;20344;-57
2022/12/06 11:27:32;;;;;;;3.57;1.80;;;8.90;99.90;;;;;;5063641;28;20292;-56
2022/12/06 11:30:01;;;;;;;5.03;1.73;;;8.70;99.90;;;;;;5027307;28;20248;-55
2022/12/06 11:32:28;;;;;;;4.60;1.70;;;8.60;99.90;;;;;;5041825;28;20226;-56
2022/12/06 11:34:59;;;;;;;4.10;2.00;;;8.40;99.90;;;;;;5042454;28;20635;-55
2022/12/06 11:37:29;;;;;;;4.77;1.90;;;8.40;99.90;;;;;;5043659;28;20567;-56
2022/12/06 11:40:06;;;;;;;3.50;1.83;;;8.50;99.90;;;;;;5042991;28;20523;-55
2022/12/06 11:42:33;;;;;;;5.83;2.37;;;8.70;99.90;;;;;;5041887;28;20207;-56
2022/12/06 11:45:09;;;;;;;4.63;2.80;;;9.40;99.90;;;;;;5041969;28;20569;-56
2022/12/06 11:47:36;;;;;;;5.83;2.40;;;9.80;99.90;;;;;;5023144;28;20199;-55
2022/12/06 11:50:11;;;;;;;3.43;1.70;;;10.20;99.90;;;;;;5044735;28;20237;-56
2022/12/06 11:52:56;;;;;;;4.00;2.00;;;10.40;99.90;;;;;;5025664;28;20229;-56
2022/12/06 11:55:30;;;;;;;3.30;1.90;;;10.40;99.90;;;;;;5040738;28;20197;-56
2022/12/06 11:58:02;;;;;;;3.33;1.60;;;10.40;99.90;;;;;;5031147;28;20286;-59
2022/12/06 12:00:29;;;;;;;2.43;1.37;;;10.10;99.90;;;;;;5038792;28;20209;-60
2022/12/06 12:02:57;;;;;;;2.80;1.57;;;9.90;99.90;;;;;;5042230;28;20197;-56
2022/12/06 12:05:29;;;;;;;1.47;1.03;;;9.70;99.90;;;;;;5042033;28;20207;-56
2022/12/06 12:08:05;;;;;;;4.80;1.33;;;9.70;99.90;;;;;;5043180;28;20321;-55
2022/12/06 12:10:37;;;;;;;6.03;1.50;;;9.60;99.90;;;;;;5041523;28;20225;-56
2022/12/06 12:16:10;;;;;;;2.50;1.27;;;9.60;99.90;;;;;;5040091;28;20230;-55
2022/12/06 12:18:42;;;;;;;3.27;1.50;;;9.60;99.90;;;;;;5042553;28;20194;-56
2022/12/06 12:21:10;;;;;;;4.33;1.40;;;9.50;99.90;;;;;;5042309;28;20202;-57
2022/12/06 12:23:43;;;;;;;2.37;1.50;;;9.40;99.90;;;;;;5041732;28;20249;-55
2022/12/06 12:26:15;;;;;;;3.80;1.60;;;9.70;99.90;;;;;;5039797;28;20734;-56
2022/12/06 12:28:44;;;;;;;3.17;1.50;;;9.50;99.90;;;;;;5038575;28;20197;-55
2022/12/06 12:31:20;;;;;;;3.47;1.30;;;9.10;99.90;;;;;;5038597;28;20240;-56
2022/12/06 12:33:48;;;;;;;2.73;1.70;;;9.30;99.90;;;;;;5032033;28;20196;-56
2022/12/06 12:36:28;;;;;;;3.73;1.87;;;9.30;99.90;;;;;;5035383;28;20206;-55
2022/12/06 12:39:02;;;;;;;2.07;1.10;;;9.10;99.90;;;;;;5035324;28;20229;-56
2022/12/06 12:41:32;;;;;;;2.53;1.70;;;9.20;99.90;;;;;;5033976;28;20295;-58
2022/12/06 12:44:00;;;;;;;3.20;1.20;;;9.20;99.90;;;;;;5039070;28;20200;-57
2022/12/06 12:46:56;;;;;;;3.70;2.40;;;9.10;99.90;;;;;;5033914;28;20227;-56
2022/12/06 12:49:35;;;;;;;5.63;1.30;;;8.90;99.90;;;;;;5037074;28;20324;-56
2022/12/06 12:52:23;;;;;;;1.90;1.30;;;8.80;99.90;;;;;;5034024;28;20302;-57
2022/12/06 12:55:12;;;;;;;6.27;1.50;;;8.70;99.90;;;;;;5037834;28;20201;-56
2022/12/06 12:57:40;;;;;;;6.20;1.67;;;8.60;99.90;;;;;;5035861;28;20263;-56
2022/12/06 13:00:17;;;;;;;2.47;1.63;;;8.50;99.90;;;;;;5033871;28;20204;-55
2022/12/06 13:02:49;;;;;;;3.13;1.50;;;8.70;99.90;;;;;;5034981;28;20699;-56
2022/12/06 13:05:20;;;;;;;5.93;1.17;;;8.70;99.90;;;;;;5037458;28;20216;-56
2022/12/06 13:08:16;;;;;;;4.83;1.63;;;8.70;99.90;;;;;;5031830;28;20241;-56
2022/12/06 13:10:47;;;;;;;2.40;1.77;;;8.60;99.90;;;;;;5028842;28;20242;-56
2022/12/06 13:13:20;;;;;;;2.57;1.50;;;8.60;99.90;;;;;;5032670;28;20269;-57
2022/12/06 13:15:51;;;;;;;3.90;1.30;;;8.60;99.90;;;;;;5023909;28;20209;-57
2022/12/06 13:18:41;;;;;;;4.37;1.30;;;8.60;99.90;;;;;;5024405;28;20212;-57
2022/12/06 13:21:44;;;;;;;4.90;1.53;;;8.70;99.90;;;;;;5013743;28;20205;-56
2022/12/06 13:24:11;;;;;;;2.77;1.50;;;8.70;99.90;;;;;;5033538;28;20210;-57
2022/12/06 13:26:46;;;;;;;2.77;1.40;;;8.40;99.90;;;;;;5033935;28;20202;-61
2022/12/06 13:29:20;;;;;;;4.37;1.50;;;8.40;99.90;;;;;;5030616;28;20212;-55
2022/12/06 13:31:50;;;;;;;4.70;1.10;;;8.50;99.90;;;;;;5032734;28;20345;-59
2022/12/06 13:34:28;;;;;;;3.03;1.13;;;8.40;99.90;;;;;;5024667;28;20380;-58
2022/12/06 13:37:01;;;;;;;11.60;1.43;;;8.40;99.90;;;;;;5039441;28;20237;-56
2022/12/06 13:39:31;;;;;;;2.73;1.40;;;8.30;99.90;;;;;;5036020;28;20196;-58
2022/12/06 13:42:18;;;;;;;1.63;1.10;;;8.10;99.90;;;;;;5035135;28;20235;-57
2022/12/06 13:45:00;;;;;;;3.30;1.50;;;8.20;99.90;;;;;;5031753;28;20218;-56
2022/12/06 13:47:27;;;;;;;2.50;1.50;;;8.30;99.90;;;;;;5029063;28;20225;-56